IGO371W VOHS-VECC
Flight info
| Callsign | IGO371W |
|---|---|
| Flight time | N/A |
| Altitude | 35000 |
| Route | VIRKO5 SAPNU W41 KAKID KAKID2A |
| Aircraft | A21N/M-SDE3FGHIRWY/LB1 |
Departure
| Time | 2026-05-05 12:50 |
|---|---|
| Airport | Rajiv Gandhi International Airport (VOHS) |
Arrival
| Time | N/A |
|---|---|
| Airport | Netaji Subhash Chandra Bose International Airport (VECC) |
| Time | Latitude | Longitude | Altitude | Speed | Heading |
|---|---|---|---|---|---|
| 2026-05-05 12:05 | 17.23423 | 78.43452 | 2009 ft | 0 kts | 359° |
| 2026-05-05 12:35 | 17.23422 | 78.43452 | 2008 ft | 1 kts | 359° |
| 2026-05-05 12:35 | 17.23407 | 78.43452 | 2008 ft | 2 kts | 359° |
| 2026-05-05 12:35 | 17.23392 | 78.43453 | 2009 ft | 2 kts | 359° |
| 2026-05-05 12:36 | 17.23377 | 78.43450 | 2009 ft | 2 kts | 35° |
| 2026-05-05 12:36 | 17.23368 | 78.43439 | 2009 ft | 2 kts | 70° |
| 2026-05-05 12:36 | 17.23366 | 78.43423 | 2010 ft | 2 kts | 95° |
| 2026-05-05 12:36 | 17.23367 | 78.43412 | 2009 ft | 0 kts | 87° |
| 2026-05-05 12:37 | 17.23367 | 78.43411 | 2009 ft | 0 kts | 86° |
| 2026-05-05 12:41 | 17.23366 | 78.43433 | 2010 ft | 5 kts | 90° |
| 2026-05-05 12:41 | 17.23367 | 78.43488 | 2011 ft | 7 kts | 88° |
| 2026-05-05 12:41 | 17.23368 | 78.43537 | 2012 ft | 5 kts | 88° |
| 2026-05-05 12:41 | 17.23369 | 78.43568 | 2013 ft | 4 kts | 89° |
| 2026-05-05 12:42 | 17.23369 | 78.43574 | 2014 ft | 1 kts | 89° |
| 2026-05-05 12:42 | 17.23369 | 78.43600 | 2015 ft | 5 kts | 89° |
| 2026-05-05 12:42 | 17.23370 | 78.43646 | 2016 ft | 9 kts | 94° |
| 2026-05-05 12:42 | 17.23324 | 78.43697 | 2019 ft | 9 kts | 166° |
| 2026-05-05 12:43 | 17.23258 | 78.43701 | 2021 ft | 6 kts | 179° |
| 2026-05-05 12:43 | 17.23215 | 78.43702 | 2021 ft | 5 kts | 179° |
| 2026-05-05 12:43 | 17.23199 | 78.43702 | 2022 ft | 1 kts | 179° |
| 2026-05-05 12:43 | 17.23180 | 78.43702 | 2022 ft | 3 kts | 179° |
| 2026-05-05 12:44 | 17.23141 | 78.43703 | 2023 ft | 7 kts | 178° |
| 2026-05-05 12:44 | 17.23098 | 78.43737 | 2024 ft | 9 kts | 103° |
| 2026-05-05 12:44 | 17.23097 | 78.43800 | 2026 ft | 9 kts | 89° |
| 2026-05-05 12:44 | 17.23098 | 78.43870 | 2028 ft | 9 kts | 89° |
| 2026-05-05 12:45 | 17.23099 | 78.43938 | 2031 ft | 10 kts | 90° |
| 2026-05-05 12:45 | 17.23100 | 78.44027 | 2033 ft | 14 kts | 89° |
| 2026-05-05 12:45 | 17.23102 | 78.44146 | 2037 ft | 16 kts | 89° |
| 2026-05-05 12:45 | 17.23103 | 78.44274 | 2039 ft | 19 kts | 89° |
| 2026-05-05 12:46 | 17.23105 | 78.44420 | 2039 ft | 21 kts | 89° |
| 2026-05-05 12:46 | 17.23108 | 78.44572 | 2038 ft | 20 kts | 89° |
| 2026-05-05 12:46 | 17.23109 | 78.44714 | 2035 ft | 18 kts | 89° |
| 2026-05-05 12:46 | 17.23111 | 78.44849 | 2029 ft | 13 kts | 89° |
| 2026-05-05 12:47 | 17.23088 | 78.44920 | 2027 ft | 11 kts | 145° |
| 2026-05-05 12:47 | 17.23032 | 78.44930 | 2029 ft | 5 kts | 179° |
| 2026-05-05 12:47 | 17.23005 | 78.44931 | 2030 ft | 2 kts | 179° |
| 2026-05-05 12:47 | 17.22986 | 78.44931 | 2030 ft | 4 kts | 180° |
| 2026-05-05 12:48 | 17.22941 | 78.44932 | 2031 ft | 7 kts | 180° |
| 2026-05-05 12:48 | 17.22912 | 78.44907 | 2032 ft | 5 kts | 250° |
| 2026-05-05 12:48 | 17.22909 | 78.44874 | 2033 ft | 5 kts | 268° |
| 2026-05-05 12:48 | 17.22907 | 78.44756 | 2035 ft | 45 kts | 268° |
| 2026-05-05 12:49 | 17.22901 | 78.44289 | 2035 ft | 104 kts | 268° |
| 2026-05-05 12:49 | 17.22883 | 78.42996 | 2001 ft | 177 kts | 269° |
| 2026-05-05 12:49 | 17.22868 | 78.41835 | 2165 ft | 197 kts | 269° |
| 2026-05-05 12:50 | 17.22856 | 78.40773 | 2516 ft | 202 kts | 269° |
| 2026-05-05 12:50 | 17.22873 | 78.39592 | 2962 ft | 208 kts | 275° |
| 2026-05-05 12:50 | 17.24966 | 78.36749 | 4432 ft | 206 kts | 330° |
| 2026-05-05 12:51 | 17.26233 | 78.35944 | 4694 ft | 220 kts | 330° |
| 2026-05-05 12:51 | 17.27584 | 78.35058 | 4959 ft | 234 kts | 328° |
| 2026-05-05 12:51 | 17.29012 | 78.34087 | 5139 ft | 255 kts | 327° |
| 2026-05-05 12:51 | 17.30544 | 78.33103 | 5482 ft | 267 kts | 336° |
| 2026-05-05 12:52 | 17.32382 | 78.32565 | 5845 ft | 278 kts | 355° |
| 2026-05-05 12:52 | 17.34340 | 78.32488 | 6468 ft | 280 kts | 359° |
| 2026-05-05 12:52 | 17.36268 | 78.32468 | 7110 ft | 281 kts | 359° |
| 2026-05-05 12:52 | 17.38238 | 78.32638 | 7718 ft | 284 kts | 17° |
| 2026-05-05 12:53 | 17.39944 | 78.33665 | 8324 ft | 288 kts | 44° |
| 2026-05-05 12:53 | 17.41005 | 78.35284 | 8905 ft | 292 kts | 68° |
| 2026-05-05 12:53 | 17.41357 | 78.37257 | 9474 ft | 297 kts | 87° |
| 2026-05-05 12:53 | 17.41368 | 78.39513 | 10111 ft | 301 kts | 88° |
| 2026-05-05 12:54 | 17.41386 | 78.43018 | 10636 ft | 324 kts | 88° |